N154EF KMRY-KSNA
Flight info
| Callsign | N154EF |
|---|---|
| Flight time | N/A |
| Altitude | 11000 |
| Route | SNS T259 AVE LHS V459 SLI |
| Aircraft | C182/L-SDGRY/S |
Departure
| Time | 2026-05-04 00:25 |
|---|---|
| Airport | Monterey Regional Airport (KMRY) |
Arrival
| Time | N/A |
|---|---|
| Airport | John Wayne Orange County International Airport (KSNA) |
| Time | Latitude | Longitude | Altitude | Speed | Heading |
|---|---|---|---|---|---|
| 2026-05-04 00:14 | 36.58894 | -121.85423 | 204 ft | 0 kts | 293° |
| 2026-05-04 00:18 | 36.58904 | -121.85425 | 206 ft | 6 kts | 23° |
| 2026-05-04 00:19 | 36.58917 | -121.85354 | 204 ft | 12 kts | 104° |
| 2026-05-04 00:19 | 36.58887 | -121.85234 | 205 ft | 16 kts | 111° |
| 2026-05-04 00:19 | 36.58840 | -121.85094 | 205 ft | 18 kts | 111° |
| 2026-05-04 00:19 | 36.58790 | -121.84946 | 205 ft | 19 kts | 113° |
| 2026-05-04 00:20 | 36.58740 | -121.84797 | 210 ft | 19 kts | 112° |
| 2026-05-04 00:20 | 36.58687 | -121.84644 | 205 ft | 20 kts | 117° |
| 2026-05-04 00:20 | 36.58625 | -121.84496 | 211 ft | 19 kts | 115° |
| 2026-05-04 00:20 | 36.58570 | -121.84342 | 207 ft | 20 kts | 117° |
| 2026-05-04 00:21 | 36.58518 | -121.84184 | 204 ft | 20 kts | 111° |
| 2026-05-04 00:21 | 36.58465 | -121.84026 | 207 ft | 20 kts | 113° |
| 2026-05-04 00:21 | 36.58411 | -121.83868 | 205 ft | 20 kts | 114° |
| 2026-05-04 00:21 | 36.58357 | -121.83708 | 205 ft | 20 kts | 112° |
| 2026-05-04 00:22 | 36.58301 | -121.83548 | 205 ft | 20 kts | 110° |
| 2026-05-04 00:22 | 36.58289 | -121.83481 | 204 ft | 0 kts | 101° |
| 2026-05-04 00:23 | 36.58285 | -121.83452 | 208 ft | 9 kts | 97° |
| 2026-05-04 00:23 | 36.58315 | -121.83376 | 207 ft | 13 kts | 340° |
| 2026-05-04 00:23 | 36.58381 | -121.83500 | 210 ft | 31 kts | 292° |
| 2026-05-04 00:23 | 36.58499 | -121.83903 | 210 ft | 64 kts | 293° |
| 2026-05-04 00:24 | 36.58716 | -121.84515 | 243 ft | 87 kts | 293° |
| 2026-05-04 00:24 | 36.58979 | -121.85208 | 431 ft | 90 kts | 289° |
| 2026-05-04 00:24 | 36.59360 | -121.85850 | 579 ft | 98 kts | 301° |
| 2026-05-04 00:24 | 36.59837 | -121.86451 | 771 ft | 102 kts | 310° |
| 2026-05-04 00:25 | 36.60523 | -121.86689 | 1162 ft | 111 kts | 2° |
| 2026-05-04 00:25 | 36.61227 | -121.86292 | 1528 ft | 116 kts | 45° |
| 2026-05-04 00:25 | 36.61455 | -121.85309 | 1785 ft | 126 kts | 97° |
| 2026-05-04 00:25 | 36.61288 | -121.84220 | 2117 ft | 133 kts | 101° |
| 2026-05-04 00:26 | 36.61510 | -121.83058 | 2418 ft | 142 kts | 69° |
| 2026-05-04 00:26 | 36.61831 | -121.81882 | 2782 ft | 144 kts | 75° |
| 2026-05-04 00:26 | 36.62096 | -121.80692 | 3128 ft | 142 kts | 76° |
| 2026-05-04 00:26 | 36.62348 | -121.79509 | 3464 ft | 140 kts | 75° |
| 2026-05-04 00:27 | 36.62598 | -121.78332 | 3776 ft | 141 kts | 75° |
| 2026-05-04 00:27 | 36.62848 | -121.77146 | 4079 ft | 142 kts | 76° |
| 2026-05-04 00:27 | 36.63096 | -121.75969 | 4384 ft | 142 kts | 77° |
| 2026-05-04 00:27 | 36.63346 | -121.74784 | 4713 ft | 140 kts | 77° |
| 2026-05-04 00:28 | 36.63592 | -121.73615 | 5041 ft | 140 kts | 79° |
| 2026-05-04 00:28 | 36.63837 | -121.72454 | 5365 ft | 138 kts | 81° |
| 2026-05-04 00:28 | 36.64078 | -121.71312 | 5703 ft | 135 kts | 80° |
| 2026-05-04 00:28 | 36.64314 | -121.70190 | 6031 ft | 132 kts | 80° |
| 2026-05-04 00:29 | 36.64545 | -121.69095 | 6354 ft | 129 kts | 81° |
| 2026-05-04 00:29 | 36.64770 | -121.68024 | 6628 ft | 127 kts | 81° |
| 2026-05-04 00:29 | 36.64992 | -121.66963 | 6914 ft | 126 kts | 82° |
| 2026-05-04 00:29 | 36.65214 | -121.65906 | 7188 ft | 127 kts | 83° |
| 2026-05-04 00:30 | 36.65438 | -121.64842 | 7456 ft | 127 kts | 82° |
| 2026-05-04 00:30 | 36.65662 | -121.63772 | 7734 ft | 128 kts | 82° |
| 2026-05-04 00:30 | 36.65887 | -121.62699 | 8011 ft | 128 kts | 83° |
| 2026-05-04 00:30 | 36.66112 | -121.61625 | 8309 ft | 129 kts | 81° |
| 2026-05-04 00:31 | 36.66242 | -121.60565 | 8591 ft | 124 kts | 102° |
| 2026-05-04 00:31 | 36.65914 | -121.59603 | 8878 ft | 120 kts | 130° |
| 2026-05-04 00:31 | 36.65387 | -121.58813 | 9199 ft | 118 kts | 131° |
| 2026-05-04 00:31 | 36.64866 | -121.58012 | 9524 ft | 120 kts | 133° |
| 2026-05-04 00:32 | 36.64336 | -121.57206 | 9836 ft | 121 kts | 134° |
| 2026-05-04 00:32 | 36.63807 | -121.56399 | 10149 ft | 120 kts | 133° |
| 2026-05-04 00:32 | 36.63280 | -121.55599 | 10466 ft | 120 kts | 133° |
| 2026-05-04 00:32 | 36.62749 | -121.54792 | 10801 ft | 121 kts | 134° |
| 2026-05-04 00:33 | 36.62199 | -121.53962 | 10985 ft | 135 kts | 134° |
| 2026-05-04 00:33 | 36.60859 | -121.51932 | 10997 ft | 166 kts | 133° |
| 2026-05-04 00:33 | 36.60110 | -121.50794 | 10999 ft | 173 kts | 133° |
| 2026-05-04 00:34 | 36.59339 | -121.49624 | 10995 ft | 176 kts | 133° |
| 2026-05-04 00:34 | 36.58559 | -121.48441 | 10994 ft | 177 kts | 134° |
| 2026-05-04 00:34 | 36.57775 | -121.47254 | 10992 ft | 178 kts | 133° |
| 2026-05-04 00:34 | 36.56997 | -121.46074 | 10992 ft | 173 kts | 134° |
| 2026-05-04 00:35 | 36.56246 | -121.44933 | 10996 ft | 168 kts | 134° |
| 2026-05-04 00:35 | 36.55515 | -121.43825 | 10980 ft | 164 kts | 134° |
| 2026-05-04 00:35 | 36.54798 | -121.42740 | 10979 ft | 161 kts | 134° |
| 2026-05-04 00:35 | 36.54086 | -121.41665 | 10978 ft | 161 kts | 133° |
| 2026-05-04 00:36 | 36.53375 | -121.40591 | 10976 ft | 161 kts | 133° |
| 2026-05-04 00:36 | 36.52665 | -121.39517 | 10975 ft | 161 kts | 133° |
| 2026-05-04 00:36 | 36.51967 | -121.38462 | 10975 ft | 160 kts | 133° |
| 2026-05-04 00:36 | 36.51261 | -121.37395 | 10975 ft | 160 kts | 133° |
| 2026-05-04 00:37 | 36.50553 | -121.36326 | 10976 ft | 160 kts | 134° |
| 2026-05-04 00:37 | 36.49848 | -121.35260 | 10983 ft | 160 kts | 133° |
| 2026-05-04 00:37 | 36.49138 | -121.34190 | 10978 ft | 161 kts | 133° |
| 2026-05-04 00:37 | 36.48424 | -121.33114 | 10980 ft | 162 kts | 133° |
| 2026-05-04 00:38 | 36.47705 | -121.32030 | 10981 ft | 163 kts | 133° |
| 2026-05-04 00:38 | 36.46987 | -121.30946 | 10984 ft | 163 kts | 133° |
| 2026-05-04 00:38 | 36.46268 | -121.29861 | 10975 ft | 163 kts | 133° |
| 2026-05-04 00:38 | 36.45548 | -121.28776 | 10975 ft | 163 kts | 133° |
| 2026-05-04 00:39 | 36.44828 | -121.27691 | 10975 ft | 163 kts | 133° |
| 2026-05-04 00:39 | 36.44117 | -121.26621 | 10976 ft | 163 kts | 133° |
| 2026-05-04 00:39 | 36.43397 | -121.25537 | 10976 ft | 163 kts | 133° |
| 2026-05-04 00:39 | 36.42677 | -121.24454 | 10977 ft | 163 kts | 133° |
| 2026-05-04 00:40 | 36.41958 | -121.23372 | 10972 ft | 162 kts | 132° |
| 2026-05-04 00:40 | 36.41246 | -121.22300 | 10972 ft | 160 kts | 132° |
| 2026-05-04 00:40 | 36.40538 | -121.21236 | 10971 ft | 159 kts | 132° |
| 2026-05-04 00:40 | 36.39833 | -121.20176 | 10970 ft | 159 kts | 132° |
| 2026-05-04 00:41 | 36.39131 | -121.19120 | 10965 ft | 158 kts | 132° |
| 2026-05-04 00:41 | 36.38433 | -121.18071 | 10955 ft | 157 kts | 132° |
| 2026-05-04 00:41 | 36.37742 | -121.17035 | 10953 ft | 158 kts | 132° |